首页
METAR-TAF:

METAR-TAF

机场 :

Air Force Station

卡纳维拉尔角空军基地, 佛罗里达州, 美国

纬度: 28-28N, 经度: 080-33W, 海拔: 3米

当前天气观测

该预报发布于59分钟前的13:56 UTC
风速6节,风向北转东北
温度 20°C
湿度 60%
气压 1024 hPa
能見度: 12.9公里
天空无云

METAR: KXMR 231356Z AUTO 03006KT 8SM CLR 20/12 A3024 RMK AO2 SLP243 T02010118 $

时间: 09:55 (14:55 UTC)


TAF: 丢失

超过4000个机场的气象观测和天气预报(METAR&TAF报告)。

可查询的气象台以黄色和红色小点在地图上表示。

将鼠标移到小点上方,可查看气象台名称。

然后点击查看天气观测和预报。

如需切换地图:点击带黑十字的绿色按钮放大地图;点击带横线的绿色按钮缩小地图;或者点击绿色箭头查看邻近地区的地图。


METAR-TAF: